Terminal Aerodrome Forecast
Issued by NWS

Home | Current Version | Previous Version | Text Only | Print | Product List | Glossary On
Versions: 1 2 3 4 5 6 7 8 9 10 11 12 13 14 15 16 17 18 19 20 21 22 23 24 25 26
000
FTUS43 KGRB 111141
TAFATW
TAF
KATW 111141Z 1112/1212 18007KT 1 1/2SM -SN OVC015
     FM111600 21007KT 3SM -FZDZSN BKN015 OVC025
     FM112000 29007KT 5SM -SHSN OVC020
     FM112300 33014G24KT P6SM BKN035
     FM120100 33019G28KT P6SM SCT035=

USA.gov is the U.S. government's official web portal to all federal, state and local government web resources and services.